Time;durP1;ratioP1;P1;durP2;ratioP2;P2;SDS_P1;SDS_P2;PMS_P1;PMS_P2;Temp;Humidity;BMP_temperature;BMP_pressure;BME280_temperature;BME280_humidity;BME280_pressure;Samples;Min_cycle;Max_cycle;Signal;HPM_P1;HPM_P2
2024/03/23 00:02:19;;;;;;;5.55;2.08;;;10.90;84.20;;;;;;5086736;28;20083;-64
2024/03/23 00:04:46;;;;;;;5.05;2.22;;;10.90;84.20;;;;;;5086309;28;20107;-64
2024/03/23 00:07:12;;;;;;;5.80;2.58;;;10.90;84.30;;;;;;5087488;28;20036;-64
2024/03/23 00:09:41;;;;;;;7.57;2.50;;;10.80;84.20;;;;;;5085081;28;20048;-64
2024/03/23 00:12:07;;;;;;;8.57;2.88;;;10.80;84.20;;;;;;5079735;28;20421;-65
2024/03/23 00:14:34;;;;;;;7.93;2.65;;;10.90;84.30;;;;;;5081156;28;20111;-64
2024/03/23 00:17:01;;;;;;;7.20;2.90;;;10.80;84.10;;;;;;5081367;28;20421;-65
2024/03/23 00:19:28;;;;;;;3.90;2.38;;;10.90;84.20;;;;;;5082136;28;20164;-64
2024/03/23 00:21:55;;;;;;;4.70;1.75;;;10.90;84.10;;;;;;5084246;28;20429;-65
2024/03/23 00:24:22;;;;;;;8.45;2.28;;;10.90;84.00;;;;;;5078844;28;20047;-65
2024/03/23 00:26:49;;;;;;;6.93;2.22;;;10.80;83.90;;;;;;5083306;28;20111;-64
2024/03/23 00:29:16;;;;;;;6.97;2.65;;;10.80;83.90;;;;;;5079648;28;20059;-64
2024/03/23 00:31:42;;;;;;;7.35;2.00;;;10.80;83.80;;;;;;5086899;28;20081;-64
2024/03/23 00:34:09;;;;;;;12.35;3.63;;;10.80;83.90;;;;;;5085063;28;20077;-65
2024/03/23 00:36:36;;;;;;;4.88;2.53;;;10.70;83.90;;;;;;5084292;28;20113;-68
2024/03/23 00:39:03;;;;;;;3.45;2.40;;;10.70;84.00;;;;;;5079453;28;20414;-64
2024/03/23 00:41:30;;;;;;;2.30;1.10;;;10.70;84.10;;;;;;5082934;28;20039;-64
2024/03/23 00:43:57;;;;;;;9.05;2.50;;;10.70;84.10;;;;;;5081589;28;20131;-65
2024/03/23 00:46:24;;;;;;;7.50;2.67;;;10.60;84.20;;;;;;5080755;28;20119;-65
2024/03/23 00:48:50;;;;;;;9.90;2.47;;;10.60;84.30;;;;;;5080564;28;20108;-64
2024/03/23 00:51:17;;;;;;;8.80;2.65;;;10.60;84.30;;;;;;5077604;28;20106;-64
2024/03/23 00:53:44;;;;;;;6.05;2.53;;;10.60;84.20;;;;;;5084016;28;20083;-64
2024/03/23 00:56:09;;;;;;;7.57;2.28;;;10.60;84.10;;;;;;5086333;28;20023;-64
2024/03/23 00:58:35;;;;;;;4.25;1.98;;;10.60;84.20;;;;;;5086107;28;20035;-68
2024/03/23 01:01:03;;;;;;;9.38;2.83;;;10.60;84.20;;;;;;5079293;28;20478;-69
2024/03/23 01:03:29;;;;;;;6.93;2.80;;;10.60;84.20;;;;;;5089734;28;20024;-69
2024/03/23 01:06:01;;;;;;;11.82;1.90;;;10.60;84.20;;;;;;5087349;28;20024;-69
2024/03/23 01:08:28;;;;;;;5.15;2.53;;;10.60;84.20;;;;;;5090415;28;20031;-68
2024/03/23 01:11:01;;;;;;;5.38;2.03;;;10.50;84.20;;;;;;5091820;28;20055;-69
2024/03/23 01:13:28;;;;;;;5.32;3.05;;;10.50;84.30;;;;;;5087941;28;20348;-69
2024/03/23 01:15:55;;;;;;;9.30;3.53;;;10.50;84.30;;;;;;5090486;28;20094;-69
2024/03/23 01:18:22;;;;;;;6.90;3.03;;;10.50;84.30;;;;;;5091473;28;20024;-69
2024/03/23 01:20:49;;;;;;;6.93;2.22;;;10.40;84.30;;;;;;5089819;28;20536;-69
2024/03/23 01:23:15;;;;;;;6.70;3.10;;;10.40;84.50;;;;;;5091442;28;20036;-69
2024/03/23 01:25:41;;;;;;;6.53;2.22;;;10.30;84.50;;;;;;5085191;28;20055;-69
2024/03/23 01:28:07;;;;;;;14.00;3.45;;;10.30;84.70;;;;;;5092480;28;20023;-69
2024/03/23 01:30:34;;;;;;;7.13;3.33;;;10.20;84.70;;;;;;5087139;28;20032;-65
2024/03/23 01:33:00;;;;;;;7.72;2.28;;;10.30;84.70;;;;;;5082494;28;20029;-64
2024/03/23 01:35:27;;;;;;;10.10;2.83;;;10.30;84.70;;;;;;5080388;28;20035;-64
2024/03/23 01:37:53;;;;;;;6.70;3.08;;;10.30;84.60;;;;;;5081867;28;20044;-69
2024/03/23 01:40:19;;;;;;;8.77;3.60;;;10.30;84.70;;;;;;5082675;28;20422;-69
2024/03/23 01:42:58;;;;;;;6.20;2.97;;;10.30;84.70;;;;;;5084850;28;20070;-65
2024/03/23 01:45:24;;;;;;;6.18;2.55;;;10.30;84.60;;;;;;5086925;28;20044;-65
2024/03/23 01:47:53;;;;;;;5.70;2.80;;;10.40;84.60;;;;;;5086263;28;20089;-65
2024/03/23 01:50:23;;;;;;;6.22;3.22;;;10.40;84.60;;;;;;5081252;28;20107;-64
2024/03/23 01:52:50;;;;;;;3.22;1.73;;;10.40;84.50;;;;;;5088909;28;20467;-64
2024/03/23 01:55:16;;;;;;;9.45;3.28;;;10.30;84.50;;;;;;5085910;28;20032;-65
2024/03/23 01:57:42;;;;;;;8.50;3.88;;;10.30;84.50;;;;;;5091214;28;20476;-64
2024/03/23 02:00:12;;;;;;;6.45;3.08;;;10.30;84.60;;;;;;5089527;28;20101;-64
2024/03/23 02:02:47;;;;;;;6.05;3.35;;;10.30;84.70;;;;;;5091159;28;20340;-64
2024/03/23 02:05:13;;;;;;;7.40;2.85;;;10.20;84.70;;;;;;5090589;28;20032;-64
2024/03/23 02:07:40;;;;;;;7.72;3.20;;;10.20;84.80;;;;;;5087874;28;20036;-64
2024/03/23 02:10:10;;;;;;;15.70;4.47;;;10.20;84.90;;;;;;5087391;28;20499;-64
2024/03/23 02:12:37;;;;;;;12.85;3.40;;;10.20;84.90;;;;;;5083450;28;20021;-64
2024/03/23 02:15:03;;;;;;;9.35;4.10;;;10.20;84.70;;;;;;5083920;28;20028;-64
2024/03/23 02:17:32;;;;;;;9.07;2.95;;;10.30;84.60;;;;;;5090683;28;20032;-64
2024/03/23 02:19:58;;;;;;;9.23;3.33;;;10.20;84.70;;;;;;5090689;28;20032;-65
2024/03/23 02:22:24;;;;;;;7.35;2.83;;;10.20;84.70;;;;;;5088982;28;20035;-64
2024/03/23 02:24:50;;;;;;;13.57;3.05;;;10.20;84.70;;;;;;5079278;28;20052;-64
2024/03/23 02:27:16;;;;;;;6.97;3.22;;;10.20;84.80;;;;;;5084433;28;20038;-64
2024/03/23 02:29:42;;;;;;;10.73;4.10;;;10.20;84.90;;;;;;5073925;28;20386;-63
2024/03/23 02:32:11;;;;;;;5.63;2.97;;;10.10;84.80;;;;;;5081081;28;20039;-64
2024/03/23 02:34:37;;;;;;;12.13;4.97;;;10.10;84.90;;;;;;5088934;28;20024;-64
2024/03/23 02:37:10;;;;;;;14.20;3.97;;;10.10;84.80;;;;;;5086658;28;20074;-63
2024/03/23 02:39:35;;;;;;;8.18;3.35;;;10.10;84.80;;;;;;5086625;28;20472;-63
2024/03/23 02:42:01;;;;;;;6.80;3.08;;;10.10;84.80;;;;;;5078882;28;20039;-63
2024/03/23 02:44:27;;;;;;;6.97;3.00;;;10.10;84.80;;;;;;5087523;28;20093;-63
2024/03/23 02:46:53;;;;;;;8.73;3.28;;;10.10;84.70;;;;;;5080488;28;20544;-64
2024/03/23 02:49:21;;;;;;;4.13;2.13;;;10.10;84.70;;;;;;5079142;28;20039;-64
2024/03/23 02:51:48;;;;;;;7.57;2.55;;;10.10;84.70;;;;;;5087867;28;20433;-64
2024/03/23 02:54:14;;;;;;;8.65;3.38;;;10.10;84.70;;;;;;5088847;28;20046;-63
2024/03/23 02:56:40;;;;;;;4.80;2.97;;;10.00;84.80;;;;;;5083970;28;21436;-63
2024/03/23 02:59:06;;;;;;;9.00;4.07;;;9.90;84.90;;;;;;5084299;28;20024;-64
2024/03/23 03:01:32;;;;;;;6.78;3.28;;;9.90;84.90;;;;;;5067133;28;20086;-64
2024/03/23 03:03:58;;;;;;;6.53;2.63;;;9.90;85.00;;;;;;5087746;28;20028;-64
2024/03/23 03:06:28;;;;;;;9.88;3.58;;;9.90;84.90;;;;;;5081369;28;20040;-63
2024/03/23 03:08:54;;;;;;;9.70;2.95;;;9.90;85.00;;;;;;5086715;28;20463;-64
2024/03/23 03:11:20;;;;;;;6.15;3.72;;;9.80;85.00;;;;;;5086155;28;20020;-63
2024/03/23 03:13:46;;;;;;;8.98;3.50;;;9.80;85.20;;;;;;5088375;28;20060;-63
2024/03/23 03:16:12;;;;;;;9.13;3.15;;;9.70;85.30;;;;;;5081785;28;20035;-64
2024/03/23 03:18:40;;;;;;;12.65;3.40;;;9.70;85.50;;;;;;5083655;28;20032;-63
2024/03/23 03:21:10;;;;;;;8.63;4.05;;;9.70;85.50;;;;;;5088513;28;20031;-63
2024/03/23 03:23:39;;;;;;;8.38;3.35;;;9.60;85.40;;;;;;5087831;28;20080;-64
2024/03/23 03:26:05;;;;;;;7.25;3.75;;;9.60;85.50;;;;;;5086714;28;20067;-63
2024/03/23 03:28:32;;;;;;;4.65;3.33;;;9.60;85.50;;;;;;5083092;28;20465;-64
2024/03/23 03:30:59;;;;;;;6.60;2.53;;;9.60;85.40;;;;;;5084306;28;20031;-63
2024/03/23 03:33:27;;;;;;;8.77;3.28;;;9.60;85.30;;;;;;5066604;28;20048;-64
2024/03/23 03:35:53;;;;;;;6.88;3.15;;;9.50;85.30;;;;;;5087142;28;20490;-64
2024/03/23 03:38:19;;;;;;;9.63;3.63;;;9.50;85.40;;;;;;5087873;28;20024;-64
2024/03/23 03:40:45;;;;;;;8.40;3.92;;;9.50;85.40;;;;;;5085136;28;20467;-64
2024/03/23 03:43:11;;;;;;;13.82;3.67;;;9.50;85.40;;;;;;5082419;28;20126;-64
2024/03/23 03:45:37;;;;;;;7.03;3.25;;;9.40;85.40;;;;;;5085103;28;20036;-64
2024/03/23 03:48:03;;;;;;;9.50;3.83;;;9.40;85.50;;;;;;5081403;28;20040;-65
2024/03/23 03:50:28;;;;;;;5.60;2.78;;;9.40;85.50;;;;;;5071039;28;20032;-64
2024/03/23 03:52:54;;;;;;;5.82;3.15;;;9.40;85.40;;;;;;5082730;28;20031;-65
2024/03/23 03:55:20;;;;;;;4.35;2.53;;;9.40;85.50;;;;;;5075660;28;20111;-64
2024/03/23 03:57:46;;;;;;;7.13;2.60;;;9.40;85.30;;;;;;5086695;28;20024;-64
2024/03/23 04:00:13;;;;;;;8.05;3.58;;;9.40;85.20;;;;;;5083135;28;20032;-64
2024/03/23 04:02:39;;;;;;;5.93;3.47;;;9.40;85.10;;;;;;5081951;28;20472;-64
2024/03/23 04:05:05;;;;;;;8.52;3.30;;;9.40;85.10;;;;;;5087484;28;20059;-65
2024/03/23 04:07:31;;;;;;;4.18;2.78;;;9.30;85.00;;;;;;5082292;28;20501;-65
2024/03/23 04:09:57;;;;;;;8.20;3.15;;;9.30;85.00;;;;;;5087690;28;20020;-64
2024/03/23 04:12:24;;;;;;;6.90;2.58;;;9.20;85.00;;;;;;5082773;28;20039;-64
2024/03/23 04:14:50;;;;;;;9.52;3.53;;;9.20;85.00;;;;;;5084132;28;20149;-64
2024/03/23 04:17:16;;;;;;;3.97;2.13;;;9.20;85.10;;;;;;5087107;28;20131;-63
2024/03/23 04:19:42;;;;;;;6.85;3.47;;;9.10;85.10;;;;;;5087993;28;20024;-64
2024/03/23 04:22:08;;;;;;;5.95;2.90;;;9.00;85.20;;;;;;5086293;28;20043;-64
2024/03/23 04:24:34;;;;;;;6.35;3.08;;;9.00;85.30;;;;;;5079016;28;20045;-64
2024/03/23 04:27:00;;;;;;;6.03;3.20;;;9.00;85.30;;;;;;5078342;28;20437;-64
2024/03/23 04:29:26;;;;;;;5.90;2.25;;;8.90;85.40;;;;;;5085822;28;20032;-64
2024/03/23 04:31:52;;;;;;;9.98;2.67;;;8.90;85.30;;;;;;5082380;28;20033;-64
2024/03/23 04:34:18;;;;;;;6.95;2.65;;;8.90;85.30;;;;;;5085505;28;20035;-64
2024/03/23 04:36:44;;;;;;;5.10;1.88;;;8.90;85.20;;;;;;5078231;28;20025;-64
2024/03/23 04:39:10;;;;;;;4.00;2.22;;;8.80;85.20;;;;;;5086762;28;20052;-64
2024/03/23 04:41:36;;;;;;;8.80;3.92;;;8.90;85.10;;;;;;5089558;28;20036;-64
2024/03/23 04:44:02;;;;;;;14.95;4.13;;;8.90;84.90;;;;;;5083689;28;20060;-64
2024/03/23 04:46:28;;;;;;;13.23;2.75;;;8.80;84.80;;;;;;5088237;28;20028;-68
2024/03/23 04:48:56;;;;;;;15.23;4.10;;;8.80;84.90;;;;;;5089052;28;20028;-68
2024/03/23 04:51:25;;;;;;;7.30;1.80;;;8.80;84.80;;;;;;5089670;28;20024;-68
2024/03/23 04:53:51;;;;;;;6.95;2.00;;;8.80;84.80;;;;;;5079952;28;20037;-69
2024/03/23 04:56:18;;;;;;;3.00;1.67;;;8.80;84.80;;;;;;5086276;28;20028;-69
2024/03/23 04:58:44;;;;;;;11.32;3.35;;;8.80;85.40;;;;;;5091282;28;20036;-64
2024/03/23 05:01:14;;;;;;;3.88;1.63;;;8.70;84.70;;;;;;5088747;28;20422;-64
2024/03/23 05:03:40;;;;;;;3.65;1.80;;;8.80;84.60;;;;;;5089557;28;20382;-64
2024/03/23 05:06:06;;;;;;;4.07;2.97;;;8.70;84.40;;;;;;5089265;28;20090;-64
2024/03/23 05:08:32;;;;;;;6.53;1.65;;;8.70;84.50;;;;;;5091125;28;20093;-64
2024/03/23 05:10:58;;;;;;;8.30;2.42;;;8.70;84.40;;;;;;5090836;28;20044;-65
2024/03/23 05:13:24;;;;;;;3.80;1.88;;;8.70;84.30;;;;;;5088840;28;20035;-64
2024/03/23 05:15:56;;;;;;;2.55;1.67;;;8.70;84.30;;;;;;5089494;28;20455;-64
2024/03/23 05:18:22;;;;;;;9.55;2.95;;;8.60;84.10;;;;;;5086581;28;20522;-64
2024/03/23 05:20:48;;;;;;;4.60;1.85;;;8.60;84.20;;;;;;5082905;28;20028;-64
2024/03/23 05:23:15;;;;;;;8.65;2.00;;;8.60;84.20;;;;;;5087851;28;20028;-65
2024/03/23 05:25:41;;;;;;;1.85;1.05;;;8.60;84.30;;;;;;5084355;28;20056;-64
2024/03/23 05:28:07;;;;;;;3.15;1.85;;;8.60;84.80;;;;;;5083366;28;20432;-65
2024/03/23 05:30:33;;;;;;;7.55;2.05;;;8.60;84.30;;;;;;5088841;28;20065;-64
2024/03/23 05:32:59;;;;;;;6.72;2.08;;;8.60;84.20;;;;;;5088506;28;20045;-64
2024/03/23 05:35:25;;;;;;;5.78;1.60;;;8.60;84.40;;;;;;5090312;28;20036;-64
2024/03/23 05:37:51;;;;;;;9.43;2.08;;;8.60;84.40;;;;;;5088820;28;20499;-64
2024/03/23 05:40:16;;;;;;;6.32;2.30;;;8.60;84.30;;;;;;5085089;28;20555;-64
2024/03/23 05:42:42;;;;;;;2.33;1.42;;;8.50;84.40;;;;;;5086687;28;20487;-64
2024/03/23 05:45:09;;;;;;;8.80;1.48;;;8.50;84.50;;;;;;5081759;28;20502;-64
2024/03/23 05:47:35;;;;;;;4.43;1.45;;;8.50;84.50;;;;;;5082800;28;20036;-64
2024/03/23 05:50:01;;;;;;;4.18;1.65;;;8.50;84.30;;;;;;5086762;28;20047;-64
2024/03/23 05:52:28;;;;;;;10.63;1.75;;;8.40;84.30;;;;;;5091023;28;20032;-64
2024/03/23 05:54:54;;;;;;;4.10;1.58;;;8.40;84.40;;;;;;5089912;28;20016;-64
2024/03/23 05:57:20;;;;;;;2.53;1.88;;;8.40;84.40;;;;;;5087195;28;20032;-65
2024/03/23 05:59:46;;;;;;;2.70;1.95;;;8.40;84.40;;;;;;5077519;28;20086;-64
2024/03/23 06:02:11;;;;;;;2.25;1.23;;;8.40;84.40;;;;;;5089313;28;20028;-65
2024/03/23 06:04:37;;;;;;;1.35;1.02;;;8.40;84.40;;;;;;5089561;28;20028;-64
2024/03/23 06:07:06;;;;;;;1.17;0.85;;;8.40;84.30;;;;;;5083227;28;20368;-65
2024/03/23 06:09:31;;;;;;;3.75;0.93;;;8.30;84.30;;;;;;5078190;28;20029;-65
2024/03/23 06:11:57;;;;;;;1.63;1.05;;;8.30;84.20;;;;;;5083243;28;20094;-65
2024/03/23 06:14:23;;;;;;;2.40;1.10;;;8.30;84.30;;;;;;5089398;28;20454;-65
2024/03/23 06:16:49;;;;;;;2.65;1.17;;;8.40;84.30;;;;;;5087457;28;20020;-65
2024/03/23 06:19:14;;;;;;;5.05;2.05;;;8.40;84.20;;;;;;5084522;28;20142;-65
2024/03/23 06:21:44;;;;;;;1.98;1.27;;;8.40;84.10;;;;;;5085403;28;20147;-66
2024/03/23 06:24:10;;;;;;;11.00;2.08;;;8.40;84.00;;;;;;5085573;28;20048;-65
2024/03/23 06:26:36;;;;;;;4.82;1.08;;;8.40;83.90;;;;;;5085697;28;20024;-65
2024/03/23 06:29:01;;;;;;;2.65;1.63;;;8.40;83.80;;;;;;5084140;28;20086;-65
2024/03/23 06:31:28;;;;;;;2.47;1.33;;;8.40;83.70;;;;;;5074320;28;20040;-65
2024/03/23 06:33:55;;;;;;;1.73;1.15;;;8.40;83.70;;;;;;5086491;28;20036;-65
2024/03/23 06:36:21;;;;;;;2.30;1.48;;;8.50;83.70;;;;;;5082281;28;20376;-65
2024/03/23 06:38:47;;;;;;;4.00;0.70;;;8.50;83.50;;;;;;5084491;28;20028;-69
2024/03/23 06:41:12;;;;;;;3.20;0.93;;;8.60;83.40;;;;;;5084419;28;20043;-64
2024/03/23 06:43:38;;;;;;;2.83;0.90;;;8.60;83.30;;;;;;5087113;28;20040;-65
2024/03/23 06:46:04;;;;;;;2.08;1.40;;;8.70;83.20;;;;;;5084472;28;20102;-65
2024/03/23 06:48:30;;;;;;;3.47;0.98;;;8.70;83.00;;;;;;5087115;28;20064;-65
2024/03/23 06:50:57;;;;;;;3.17;1.80;;;8.70;83.10;;;;;;5084583;28;20078;-65
2024/03/23 06:53:23;;;;;;;2.58;1.40;;;8.80;83.10;;;;;;5083809;28;20032;-65
2024/03/23 06:55:55;;;;;;;2.25;1.25;;;8.90;82.90;;;;;;5080411;28;20037;-69
2024/03/23 06:58:21;;;;;;;;;;;9.10;82.80;;;;;;5085665;28;20522;-69
2024/03/23 07:00:47;;;;;;;4.70;0.90;;;9.10;82.20;;;;;;5082501;28;19912;-69
2024/03/23 07:03:12;;;;;;;4.30;1.20;;;9.10;82.10;;;;;;5088355;28;20035;-69
2024/03/23 07:05:38;;;;;;;5.00;1.60;;;9.10;82.00;;;;;;5081580;28;20036;-69
2024/03/23 07:08:04;;;;;;;6.97;1.02;;;9.00;82.00;;;;;;5093324;28;20162;-68
2024/03/23 07:10:30;;;;;;;2.30;1.02;;;9.10;81.90;;;;;;5082989;28;20067;-69
2024/03/23 07:12:55;;;;;;;2.58;0.75;;;9.10;81.70;;;;;;5078181;28;20094;-69
2024/03/23 07:15:21;;;;;;;0.82;0.80;;;9.20;81.10;;;;;;5083895;28;20081;-69
2024/03/23 07:17:47;;;;;;;2.90;0.93;;;9.20;81.20;;;;;;5081404;28;20651;-68
2024/03/23 07:20:13;;;;;;;3.10;1.30;;;9.20;81.30;;;;;;5084819;28;20039;-69
2024/03/23 07:22:39;;;;;;;2.45;0.95;;;9.30;81.10;;;;;;5084020;28;20032;-69
2024/03/23 07:25:06;;;;;;;2.67;1.17;;;9.40;81.00;;;;;;5089108;28;20135;-69
2024/03/23 07:27:32;;;;;;;4.75;1.20;;;9.40;80.70;;;;;;5088436;28;20047;-69
2024/03/23 07:29:57;;;;;;;3.30;1.35;;;9.50;80.60;;;;;;5087893;28;20538;-69
2024/03/23 07:32:23;;;;;;;4.10;0.75;;;9.50;80.40;;;;;;5085393;28;20101;-69
2024/03/23 07:34:49;;;;;;;3.30;1.77;;;9.50;80.20;;;;;;5080043;28;20054;-65
2024/03/23 07:37:15;;;;;;;1.92;0.70;;;9.50;80.00;;;;;;5083570;28;20023;-65
2024/03/23 07:39:41;;;;;;;2.38;1.30;;;9.50;80.10;;;;;;5080144;28;20394;-65
2024/03/23 07:42:06;;;;;;;3.00;1.00;;;9.50;80.10;;;;;;5085856;28;20035;-65
2024/03/23 07:44:32;;;;;;;7.35;1.52;;;9.60;80.10;;;;;;5088866;28;20036;-65
2024/03/23 07:47:00;;;;;;;3.40;1.10;;;9.70;79.90;;;;;;5083950;28;20443;-65
2024/03/23 07:49:26;;;;;;;4.07;1.73;;;9.80;79.90;;;;;;5079699;28;20036;-65
2024/03/23 07:51:51;;;;;;;3.17;1.35;;;9.70;80.00;;;;;;5073970;28;20112;-65
2024/03/23 07:54:17;;;;;;;2.08;0.70;;;9.80;80.20;;;;;;5082174;28;20031;-65
2024/03/23 07:56:42;;;;;;;1.25;0.80;;;9.80;79.90;;;;;;5076741;28;20038;-65
2024/03/23 07:59:08;;;;;;;4.70;1.60;;;9.80;79.90;;;;;;5085785;28;20096;-69
2024/03/23 08:01:34;;;;;;;4.82;1.08;;;9.90;80.00;;;;;;5086930;28;20063;-69
2024/03/23 08:03:59;;;;;;;3.40;1.35;;;10.00;79.90;;;;;;5083827;28;20032;-69
2024/03/23 08:06:25;;;;;;;5.72;1.58;;;10.00;79.60;;;;;;5086172;28;20482;-69
2024/03/23 08:09:00;;;;;;;5.28;1.50;;;10.00;78.90;;;;;;5083308;28;20036;-69
2024/03/23 08:11:27;;;;;;;6.82;2.38;;;10.00;79.00;;;;;;5078496;28;20031;-69
2024/03/23 08:13:53;;;;;;;3.35;1.55;;;10.00;78.70;;;;;;5084042;28;20024;-69
2024/03/23 08:16:19;;;;;;;2.95;1.75;;;10.00;78.70;;;;;;5080153;28;20355;-65
2024/03/23 08:18:45;;;;;;;3.00;0.88;;;9.90;77.90;;;;;;5084275;28;20034;-65
2024/03/23 08:21:10;;;;;;;2.22;1.00;;;9.90;78.30;;;;;;5084076;28;20045;-65
2024/03/23 08:23:37;;;;;;;3.63;1.48;;;10.00;78.50;;;;;;5085428;28;20036;-65
2024/03/23 08:26:12;;;;;;;6.80;1.63;;;10.10;78.70;;;;;;5083443;28;20024;-64
2024/03/23 08:28:38;;;;;;;5.28;0.95;;;10.20;78.20;;;;;;5085658;28;20090;-64
2024/03/23 08:31:06;;;;;;;6.28;1.15;;;10.20;77.70;;;;;;5082976;28;20024;-68
2024/03/23 08:33:32;;;;;;;1.73;1.30;;;10.20;77.50;;;;;;5082818;28;20081;-68
2024/03/23 08:36:03;;;;;;;3.83;0.90;;;10.30;77.50;;;;;;5081574;28;20036;-68
2024/03/23 08:38:29;;;;;;;3.45;1.10;;;10.30;77.00;;;;;;5086043;28;20461;-65
2024/03/23 08:41:02;;;;;;;3.25;1.10;;;10.30;76.30;;;;;;5085698;28;20028;-68
2024/03/23 08:43:29;;;;;;;2.55;1.00;;;10.30;75.40;;;;;;5084927;28;20496;-68
2024/03/23 08:46:07;;;;;;;2.95;0.90;;;10.30;75.40;;;;;;5083719;28;20070;-64
2024/03/23 08:48:37;;;;;;;4.28;0.95;;;10.30;75.20;;;;;;5083265;28;20073;-68
2024/03/23 08:51:08;;;;;;;8.50;1.50;;;10.20;75.00;;;;;;5077782;28;20016;-68
2024/03/23 08:53:37;;;;;;;2.45;1.13;;;10.30;74.70;;;;;;5079097;28;20082;-68
2024/03/23 08:56:04;;;;;;;1.42;0.55;;;10.40;74.80;;;;;;5087866;28;20016;-68
2024/03/23 08:58:30;;;;;;;4.53;1.67;;;10.30;74.40;;;;;;5059614;28;20050;-68
2024/03/23 09:01:02;;;;;;;5.40;1.20;;;10.40;74.10;;;;;;5081769;28;20123;-68
2024/03/23 09:03:28;;;;;;;2.13;1.02;;;10.30;73.80;;;;;;5079911;28;20028;-68
2024/03/23 09:05:55;;;;;;;2.35;0.65;;;10.30;74.00;;;;;;5071516;28;20038;-69
2024/03/23 09:08:21;;;;;;;1.95;0.70;;;10.10;73.20;;;;;;5084148;28;20032;-68
2024/03/23 09:10:48;;;;;;;1.60;0.50;;;9.80;73.40;;;;;;5071789;28;20455;-68
2024/03/23 09:13:14;;;;;;;5.38;0.90;;;9.60;74.20;;;;;;5065853;28;20032;-68
2024/03/23 09:15:48;;;;;;;3.03;1.20;;;9.50;74.80;;;;;;5074598;28;20056;-68
2024/03/23 09:18:14;;;;;;;2.53;1.13;;;9.40;75.60;;;;;;5064851;28;20055;-68
2024/03/23 09:20:39;;;;;;;1.35;1.20;;;9.40;76.00;;;;;;5065819;28;20494;-68
2024/03/23 09:23:05;;;;;;;2.20;0.55;;;9.40;76.30;;;;;;5069577;28;20074;-68
2024/03/23 09:25:30;;;;;;;6.70;1.20;;;9.40;76.10;;;;;;5065046;28;20062;-68
2024/03/23 09:27:56;;;;;;;1.00;0.50;;;9.30;76.30;;;;;;5076621;28;20021;-68
2024/03/23 09:30:22;;;;;;;2.53;0.95;;;9.30;76.00;;;;;;5086673;28;20119;-65
2024/03/23 09:32:48;;;;;;;1.80;1.25;;;9.20;76.10;;;;;;5087963;28;20331;-68
2024/03/23 09:35:14;;;;;;;0.70;0.52;;;9.10;75.60;;;;;;5087364;28;20028;-68
2024/03/23 09:37:42;;;;;;;4.38;1.60;;;9.10;76.20;;;;;;5084683;28;20429;-68
2024/03/23 09:40:11;;;;;;;1.20;0.90;;;9.30;76.40;;;;;;5071600;28;20107;-68
2024/03/23 09:42:37;;;;;;;2.05;0.60;;;9.60;75.90;;;;;;5090010;28;20028;-68
2024/03/23 09:45:06;;;;;;;3.88;1.80;;;9.80;75.40;;;;;;5071076;28;20106;-68
2024/03/23 09:47:33;;;;;;;9.40;1.45;;;10.00;75.20;;;;;;5077709;28;20785;-68
2024/03/23 09:50:00;;;;;;;2.45;1.45;;;10.20;74.70;;;;;;5079072;28;20021;-68
2024/03/23 09:52:26;;;;;;;1.67;0.60;;;10.50;73.90;;;;;;5067036;28;20113;-68
2024/03/23 09:54:51;;;;;;;7.03;0.80;;;10.60;73.30;;;;;;5083139;28;20086;-68
2024/03/23 09:57:17;;;;;;;6.38;1.40;;;10.70;73.70;;;;;;5088197;28;20394;-68
2024/03/23 09:59:43;;;;;;;1.55;0.32;;;10.90;72.50;;;;;;5086183;28;20025;-68
2024/03/23 10:02:10;;;;;;;1.05;0.57;;;11.00;70.40;;;;;;5088505;28;20036;-68
2024/03/23 10:04:40;;;;;;;0.98;0.63;;;11.10;70.20;;;;;;5087359;28;20028;-68
2024/03/23 10:07:13;;;;;;;5.05;0.73;;;11.20;69.00;;;;;;5085724;28;20039;-68
2024/03/23 10:09:39;;;;;;;3.95;0.75;;;11.20;68.30;;;;;;5082917;28;20040;-69
2024/03/23 10:12:13;;;;;;;2.72;0.73;;;11.20;68.70;;;;;;5081285;28;20407;-66
2024/03/23 10:14:39;;;;;;;5.25;1.75;;;11.10;68.50;;;;;;5085692;28;20383;-66
2024/03/23 10:17:17;;;;;;;2.65;0.77;;;11.00;69.30;;;;;;5093531;28;20046;-66
2024/03/23 10:19:47;;;;;;;0.93;0.40;;;10.80;70.00;;;;;;5088115;28;20059;-68
2024/03/23 10:22:20;;;;;;;4.43;0.88;;;10.70;70.70;;;;;;5077714;28;20103;-66
2024/03/23 10:24:46;;;;;;;1.60;0.90;;;10.60;70.90;;;;;;5074579;28;20252;-65
2024/03/23 10:27:19;;;;;;;1.35;0.50;;;10.50;70.90;;;;;;5077610;28;20024;-66
2024/03/23 10:29:49;;;;;;;2.95;0.60;;;10.40;71.20;;;;;;5082109;28;20528;-67
2024/03/23 10:32:17;;;;;;;1.02;0.47;;;10.30;72.00;;;;;;5088226;28;20027;-66
2024/03/23 10:34:43;;;;;;;1.67;1.05;;;10.30;71.50;;;;;;5087842;28;20468;-66
2024/03/23 10:37:10;;;;;;;1.08;0.75;;;10.30;71.50;;;;;;5088996;28;20428;-69
2024/03/23 10:39:40;;;;;;;1.27;0.73;;;10.20;71.60;;;;;;5083891;28;20056;-67
2024/03/23 10:42:13;;;;;;;0.50;0.40;;;10.10;71.80;;;;;;5084456;28;20055;-69
2024/03/23 10:44:38;;;;;;;2.88;0.75;;;9.80;71.90;;;;;;5076827;28;20028;-66
2024/03/23 10:47:05;;;;;;;2.55;1.15;;;9.50;72.40;;;;;;5084203;28;20024;-66
2024/03/23 10:49:35;;;;;;;1.67;0.70;;;9.30;73.20;;;;;;5084505;28;20046;-66
2024/03/23 10:52:05;;;;;;;1.63;1.00;;;9.30;74.20;;;;;;5088928;28;20024;-66
2024/03/23 10:54:32;;;;;;;1.52;0.70;;;9.30;74.10;;;;;;5086509;28;20103;-67
2024/03/23 10:57:12;;;;;;;4.47;2.30;;;9.50;74.80;;;;;;5087711;28;20115;-64
2024/03/23 10:59:39;;;;;;;3.53;0.95;;;9.90;74.90;;;;;;5078445;28;20027;-64
2024/03/23 11:02:08;;;;;;;2.60;1.52;;;10.30;74.60;;;;;;5083633;28;20039;-65
2024/03/23 11:04:35;;;;;;;1.67;0.90;;;10.70;73.70;;;;;;5082133;28;20020;-69
2024/03/23 11:07:02;;;;;;;1.23;0.70;;;10.90;72.80;;;;;;5082370;28;20119;-68
2024/03/23 11:09:41;;;;;;;2.47;1.17;;;10.90;71.70;;;;;;5082941;28;20029;-69
2024/03/23 11:12:22;;;;;;;3.15;0.60;;;10.90;70.60;;;;;;5086388;28;20032;-67
2024/03/23 11:14:50;;;;;;;1.10;0.83;;;10.90;69.90;;;;;;5081607;28;20046;-67
2024/03/23 11:17:19;;;;;;;7.88;0.63;;;11.00;68.70;;;;;;5082119;28;20680;-67
2024/03/23 11:19:55;;;;;;;1.95;0.68;;;11.00;68.60;;;;;;5079800;28;20024;-67
2024/03/23 11:22:43;;;;;;;3.15;1.73;;;11.20;66.40;;;;;;5084886;28;20024;-65
2024/03/23 11:25:23;;;;;;;1.65;1.15;;;11.30;65.70;;;;;;5084265;28;20491;-65
2024/03/23 11:27:57;;;;;;;4.95;0.70;;;11.40;65.00;;;;;;5078300;28;20020;-65
2024/03/23 11:30:28;;;;;;;3.67;0.63;;;11.60;64.40;;;;;;5085893;28;20032;-65
2024/03/23 11:33:00;;;;;;;4.00;0.70;;;11.80;64.80;;;;;;5087359;28;20024;-65
2024/03/23 11:35:31;;;;;;;2.65;0.70;;;12.00;65.00;;;;;;5088673;28;20028;-65
2024/03/23 11:38:19;;;;;;;0.82;0.43;;;11.70;63.60;;;;;;5085308;28;20078;-65
2024/03/23 11:40:49;;;;;;;6.18;0.70;;;11.30;65.30;;;;;;5086071;28;20497;-65
2024/03/23 11:43:19;;;;;;;7.22;0.43;;;11.00;66.00;;;;;;5083173;28;20028;-65
2024/03/23 11:45:53;;;;;;;1.27;0.38;;;10.90;67.30;;;;;;5087236;28;20028;-65
2024/03/23 11:48:27;;;;;;;1.17;0.55;;;10.90;68.00;;;;;;5083541;28;20035;-66
2024/03/23 11:50:57;;;;;;;4.35;0.60;;;10.90;68.10;;;;;;5079048;28;20396;-67
2024/03/23 11:53:24;;;;;;;4.03;0.50;;;10.90;68.60;;;;;;5084420;28;20109;-67
2024/03/23 11:55:51;;;;;;;0.88;0.60;;;11.20;68.40;;;;;;5083252;28;20024;-66
2024/03/23 11:58:18;;;;;;;1.95;0.50;;;11.60;68.90;;;;;;5083104;28;20021;-68
2024/03/23 12:00:59;;;;;;;1.05;0.60;;;12.00;67.60;;;;;;5079167;28;20039;-68
2024/03/23 12:03:28;;;;;;;2.25;0.63;;;12.40;65.80;;;;;;5075487;28;20024;-65
2024/03/23 12:05:59;;;;;;;3.42;0.57;;;12.60;65.00;;;;;;5085076;28;20043;-67
2024/03/23 12:08:25;;;;;;;1.70;0.52;;;12.50;64.10;;;;;;5088481;28;20028;-68
2024/03/23 12:11:13;;;;;;;2.90;0.82;;;12.20;64.30;;;;;;5086893;28;20427;-66
2024/03/23 12:13:41;;;;;;;1.77;0.93;;;11.90;64.50;;;;;;5076205;28;20025;-66
2024/03/23 12:16:14;;;;;;;1.98;0.65;;;11.60;65.80;;;;;;5082632;28;20031;-66
2024/03/23 12:18:41;;;;;;;1.23;0.40;;;11.50;66.10;;;;;;5082677;28;20081;-65
2024/03/23 12:21:07;;;;;;;0.82;0.57;;;11.30;66.30;;;;;;5084347;28;20031;-68
2024/03/23 12:23:33;;;;;;;3.03;0.55;;;11.20;66.30;;;;;;5084907;28;20032;-69
2024/03/23 12:25:59;;;;;;;1.50;0.65;;;11.10;66.00;;;;;;5088008;28;20035;-66
2024/03/23 12:28:25;;;;;;;2.67;1.15;;;11.00;66.00;;;;;;5081620;28;20028;-67
2024/03/23 12:30:52;;;;;;;1.27;0.55;;;10.90;66.10;;;;;;5086668;28;20085;-66
2024/03/23 12:33:18;;;;;;;0.95;0.95;;;10.90;65.60;;;;;;5081944;28;20029;-67
2024/03/23 12:35:43;;;;;;;2.75;0.47;;;11.00;66.00;;;;;;5084059;28;20489;-65
2024/03/23 12:38:09;;;;;;;2.00;0.35;;;11.30;65.70;;;;;;5074161;28;20064;-67
2024/03/23 12:40:35;;;;;;;1.55;0.52;;;11.60;63.80;;;;;;5070932;28;20058;-68
2024/03/23 12:43:00;;;;;;;2.63;0.90;;;11.70;63.00;;;;;;5086537;28;20132;-67
2024/03/23 12:45:26;;;;;;;1.38;0.40;;;11.80;62.70;;;;;;5075732;28;20044;-69
2024/03/23 12:47:53;;;;;;;1.75;0.40;;;11.70;63.00;;;;;;5075890;28;20065;-64
2024/03/23 12:50:19;;;;;;;0.60;0.50;;;11.80;63.60;;;;;;5077229;28;20636;-64
2024/03/23 12:52:45;;;;;;;2.63;0.43;;;12.00;63.30;;;;;;5079158;28;20016;-64